Time,TemperatureF,DewpointF,PressureIn,WindDirection,WindDirectionDegrees,WindSpeedMPH,WindSpeedGustMPH,Humidity,HourlyPrecipIn,Conditions,Clouds,dailyrainin,SoftwareType,DateUTC
2013-12-22 00:00:00,42.9,37.8,30.06,West,273,0.0,0.0,82,0.00,,,0.00,Wunderground v.1.15,2013-12-22 07:00:00,
2013-12-22 00:01:00,42.9,37.8,30.06,West,273,0.0,0.0,82,0.00,,,0.00,Wunderground v.1.15,2013-12-22 07:01:00,
2013-12-22 00:06:00,42.8,38.0,30.06,West,273,0.0,0.0,83,0.00,,,0.00,Wunderground v.1.15,2013-12-22 07:06:00,
2013-12-22 00:12:00,42.9,38.1,30.06,West,273,0.0,0.0,83,0.00,,,0.00,Wunderground v.1.15,2013-12-22 07:12:00,
2013-12-22 00:18:00,42.9,38.4,30.06,West,273,0.0,0.0,84,0.00,,,0.00,Wunderground v.1.15,2013-12-22 07:18:00,
2013-12-22 00:23:00,42.8,38.0,30.06,West,273,0.0,0.0,83,0.00,,,0.00,Wunderground v.1.15,2013-12-22 07:23:00,
2013-12-22 00:28:00,42.6,38.1,30.06,West,273,0.0,0.0,84,0.00,,,0.00,Wunderground v.1.15,2013-12-22 07:28:00,
2013-12-22 00:33:00,42.5,38.0,30.06,West,273,0.0,0.0,84,0.00,,,0.00,Wunderground v.1.15,2013-12-22 07:33:00,
2013-12-22 00:39:00,42.4,37.9,30.06,West,273,0.0,0.0,84,0.00,,,0.00,Wunderground v.1.15,2013-12-22 07:39:00,
2013-12-22 00:44:00,42.2,37.7,30.06,West,273,0.0,0.0,84,0.00,,,0.00,Wunderground v.1.15,2013-12-22 07:44:00,
2013-12-22 00:50:00,42.0,37.5,30.07,West,273,0.0,0.0,84,0.00,,,0.00,Wunderground v.1.15,2013-12-22 07:50:00,
2013-12-22 00:55:00,41.6,37.1,30.07,West,273,0.0,0.0,84,0.00,,,0.00,Wunderground v.1.15,2013-12-22 07:55:00,
2013-12-22 01:00:00,41.3,37.1,30.06,West,273,0.0,0.0,85,0.00,,,0.00,Wunderground v.1.15,2013-12-22 08:00:00,
2013-12-22 01:05:00,41.2,37.0,30.07,West,273,0.0,0.0,85,0.00,,,0.00,Wunderground v.1.15,2013-12-22 08:05:00,
2013-12-22 01:10:00,41.1,36.9,30.07,West,273,0.0,0.0,85,0.00,,,0.00,Wunderground v.1.15,2013-12-22 08:10:00,
2013-12-22 01:16:00,40.9,36.7,30.07,West,273,0.0,0.0,85,0.00,,,0.00,Wunderground v.1.15,2013-12-22 08:16:00,
2013-12-22 01:21:00,40.6,36.7,30.07,West,273,0.0,0.0,86,0.00,,,0.00,Wunderground v.1.15,2013-12-22 08:21:00,
2013-12-22 01:26:00,40.3,36.4,30.07,West,273,0.0,0.0,86,0.00,,,0.00,Wunderground v.1.15,2013-12-22 08:26:00,
2013-12-22 01:31:00,40.2,36.6,30.07,West,273,0.0,0.0,87,0.00,,,0.00,Wunderground v.1.15,2013-12-22 08:31:00,
2013-12-22 01:36:00,40.0,36.4,30.07,West,273,0.0,0.0,87,0.00,,,0.00,Wunderground v.1.15,2013-12-22 08:36:00,
2013-12-22 01:42:00,40.0,36.7,30.07,West,273,0.0,0.0,88,0.00,,,0.00,Wunderground v.1.15,2013-12-22 08:42:00,
2013-12-22 01:47:00,40.0,36.7,30.07,West,273,0.0,0.0,88,0.00,,,0.00,Wunderground v.1.15,2013-12-22 08:47:00,
2013-12-22 01:53:00,39.9,36.6,30.08,West,273,0.0,0.0,88,0.00,,,0.00,Wunderground v.1.15,2013-12-22 08:53:00,
2013-12-22 01:59:00,39.8,36.5,30.08,West,273,0.0,0.0,88,0.00,,,0.00,Wunderground v.1.15,2013-12-22 08:59:00,
2013-12-22 02:05:00,39.7,36.7,30.08,West,273,0.0,0.0,89,0.00,,,0.00,Wunderground v.1.15,2013-12-22 09:05:00,
2013-12-22 02:10:00,39.6,36.6,30.08,West,273,0.0,0.0,89,0.00,,,0.00,Wunderground v.1.15,2013-12-22 09:10:00,
2013-12-22 02:16:00,39.7,36.7,30.08,West,273,0.0,0.0,89,0.00,,,0.00,Wunderground v.1.15,2013-12-22 09:16:00,
2013-12-22 02:22:00,39.6,36.6,30.08,West,273,0.0,0.0,89,0.00,,,0.00,Wunderground v.1.15,2013-12-22 09:22:00,
2013-12-22 02:27:00,39.7,37.0,30.08,West,273,0.0,0.0,90,0.00,,,0.00,Wunderground v.1.15,2013-12-22 09:27:00,
2013-12-22 02:33:00,39.7,37.0,30.08,West,273,0.0,0.0,90,0.00,,,0.00,Wunderground v.1.15,2013-12-22 09:33:00,
2013-12-22 02:39:00,39.7,37.0,30.08,West,273,0.0,0.0,90,0.00,,,0.00,Wunderground v.1.15,2013-12-22 09:39:00,
2013-12-22 02:45:00,39.5,36.8,30.08,West,273,0.0,0.0,90,0.00,,,0.00,Wunderground v.1.15,2013-12-22 09:45:00,
2013-12-22 02:51:00,39.4,36.7,30.09,West,273,0.0,0.0,90,0.00,,,0.00,Wunderground v.1.15,2013-12-22 09:51:00,
2013-12-22 02:57:00,39.4,36.7,30.09,West,273,0.0,0.0,90,0.00,,,0.00,Wunderground v.1.15,2013-12-22 09:57:00,
2013-12-22 03:02:00,39.3,36.6,30.08,West,273,0.0,0.0,90,0.00,,,0.00,Wunderground v.1.15,2013-12-22 10:02:00,
2013-12-22 03:08:00,39.1,36.4,30.09,West,273,0.0,0.0,90,0.00,,,0.00,Wunderground v.1.15,2013-12-22 10:08:00,
2013-12-22 03:13:00,39.0,36.3,30.09,West,273,0.0,0.0,90,0.00,,,0.00,Wunderground v.1.15,2013-12-22 10:13:00,
2013-12-22 03:19:00,39.0,36.3,30.09,West,273,0.0,0.0,90,0.00,,,0.00,Wunderground v.1.15,2013-12-22 10:19:00,
2013-12-22 03:24:00,38.9,36.2,30.09,West,273,0.0,0.0,90,0.00,,,0.00,Wunderground v.1.15,2013-12-22 10:24:00,
2013-12-22 03:30:00,38.9,36.2,30.09,West,273,0.0,0.0,90,0.00,,,0.00,Wunderground v.1.15,2013-12-22 10:30:00,
2013-12-22 03:36:00,38.8,36.1,30.10,West,273,0.0,0.0,90,0.00,,,0.00,Wunderground v.1.15,2013-12-22 10:36:00,
2013-12-22 03:42:00,38.6,35.9,30.09,West,273,0.0,0.0,90,0.00,,,0.00,Wunderground v.1.15,2013-12-22 10:42:00,
2013-12-22 03:47:00,38.6,36.2,30.10,West,273,0.0,0.0,91,0.00,,,0.00,Wunderground v.1.15,2013-12-22 10:47:00,
2013-12-22 03:52:00,38.6,36.2,30.10,West,273,0.0,0.0,91,0.00,,,0.00,Wunderground v.1.15,2013-12-22 10:52:00,
2013-12-22 03:57:00,38.6,36.2,30.10,West,273,0.0,0.0,91,0.00,,,0.00,Wunderground v.1.15,2013-12-22 10:57:00,
2013-12-22 04:02:00,38.6,36.2,30.10,West,273,0.0,0.0,91,0.00,,,0.00,Wunderground v.1.15,2013-12-22 11:02:00,
2013-12-22 04:07:00,38.4,36.0,30.10,West,273,0.0,0.0,91,0.00,,,0.00,Wunderground v.1.15,2013-12-22 11:07:00,
2013-12-22 04:13:00,38.3,35.9,30.10,West,273,0.0,0.0,91,0.00,,,0.00,Wunderground v.1.15,2013-12-22 11:13:00,
2013-12-22 04:19:00,38.3,35.9,30.10,West,273,0.0,0.0,91,0.00,,,0.00,Wunderground v.1.15,2013-12-22 11:19:00,
2013-12-22 04:24:00,38.1,35.7,30.11,West,273,0.0,0.0,91,0.00,,,0.00,Wunderground v.1.15,2013-12-22 11:24:00,
2013-12-22 04:30:00,38.0,35.6,30.10,West,273,0.0,0.0,91,0.00,,,0.00,Wunderground v.1.15,2013-12-22 11:30:00,
2013-12-22 04:35:00,38.0,35.6,30.10,West,273,0.0,0.0,91,0.00,,,0.00,Wunderground v.1.15,2013-12-22 11:35:00,
2013-12-22 04:41:00,38.0,35.6,30.10,West,273,0.0,0.0,91,0.00,,,0.00,Wunderground v.1.15,2013-12-22 11:41:00,
2013-12-22 04:46:00,37.9,35.5,30.11,West,273,0.0,0.0,91,0.00,,,0.00,Wunderground v.1.15,2013-12-22 11:46:00,
2013-12-22 04:51:00,37.8,35.4,30.11,West,273,0.0,0.0,91,0.00,,,0.00,Wunderground v.1.15,2013-12-22 11:51:00,
2013-12-22 04:56:00,37.7,35.3,30.11,West,273,0.0,0.0,91,0.00,,,0.00,Wunderground v.1.15,2013-12-22 11:56:00,
2013-12-22 05:01:00,37.5,35.1,30.11,West,273,0.0,0.0,91,0.00,,,0.00,Wunderground v.1.15,2013-12-22 12:01:00,
2013-12-22 05:06:00,37.3,34.9,30.11,West,273,0.0,0.0,91,0.00,,,0.00,Wunderground v.1.15,2013-12-22 12:06:00,
2013-12-22 05:11:00,37.3,34.9,30.11,West,273,0.0,0.0,91,0.00,,,0.00,Wunderground v.1.15,2013-12-22 12:11:00,
2013-12-22 05:17:00,37.3,34.9,30.12,West,273,0.0,0.0,91,0.00,,,0.00,Wunderground v.1.15,2013-12-22 12:17:00,
2013-12-22 05:22:00,37.2,34.8,30.12,West,273,0.0,0.0,91,0.00,,,0.00,Wunderground v.1.15,2013-12-22 12:22:00,
2013-12-22 05:28:00,37.0,34.6,30.12,West,273,0.0,0.0,91,0.00,,,0.00,Wunderground v.1.15,2013-12-22 12:28:00,
2013-12-22 05:33:00,36.8,34.4,30.12,West,273,0.0,0.0,91,0.00,,,0.00,Wunderground v.1.15,2013-12-22 12:33:00,
2013-12-22 05:38:00,36.7,34.3,30.12,West,273,0.0,0.0,91,0.00,,,0.00,Wunderground v.1.15,2013-12-22 12:38:00,
2013-12-22 05:43:00,36.6,34.2,30.13,West,273,0.0,0.0,91,0.00,,,0.00,Wunderground v.1.15,2013-12-22 12:43:00,
2013-12-22 05:49:00,36.5,34.1,30.13,West,273,0.0,0.0,91,0.00,,,0.00,Wunderground v.1.15,2013-12-22 12:49:00,
2013-12-22 05:54:00,36.6,34.2,30.13,West,273,0.0,0.0,91,0.00,,,0.00,Wunderground v.1.15,2013-12-22 12:54:00,
2013-12-22 06:00:00,36.5,34.1,30.13,West,273,0.0,0.0,91,0.00,,,0.00,Wunderground v.1.15,2013-12-22 13:00:00,
2013-12-22 06:06:00,36.4,34.3,30.13,West,273,0.0,0.0,92,0.00,,,0.00,Wunderground v.1.15,2013-12-22 13:06:00,
2013-12-22 06:12:00,36.3,34.2,30.14,West,273,0.0,0.0,92,0.00,,,0.00,Wunderground v.1.15,2013-12-22 13:12:00,
2013-12-22 06:18:00,36.5,34.4,30.13,West,273,0.0,0.0,92,0.00,,,0.00,Wunderground v.1.15,2013-12-22 13:18:00,
2013-12-22 06:24:00,36.6,34.5,30.14,West,273,0.0,0.0,92,0.00,,,0.00,Wunderground v.1.15,2013-12-22 13:24:00,
2013-12-22 06:29:00,36.5,34.4,30.14,West,273,0.0,0.0,92,0.00,,,0.00,Wunderground v.1.15,2013-12-22 13:29:00,
2013-12-22 06:34:00,36.4,34.3,30.14,West,273,0.0,0.0,92,0.00,,,0.00,Wunderground v.1.15,2013-12-22 13:34:00,
2013-12-22 06:40:00,36.3,34.2,30.14,West,273,0.0,0.0,92,0.00,,,0.00,Wunderground v.1.15,2013-12-22 13:40:00,
2013-12-22 06:46:00,36.4,34.3,30.15,West,273,1.0,2.0,92,0.00,,,0.00,Wunderground v.1.15,2013-12-22 13:46:00,
2013-12-22 06:52:00,36.6,34.8,30.15,West,273,1.0,1.0,93,0.00,,,0.00,Wunderground v.1.15,2013-12-22 13:52:00,
2013-12-22 06:58:00,36.7,34.9,30.15,West,273,0.0,1.0,93,0.00,,,0.00,Wunderground v.1.15,2013-12-22 13:58:00,
2013-12-22 07:03:00,36.7,34.6,30.15,West,273,0.0,0.0,92,0.00,,,0.00,Wunderground v.1.15,2013-12-22 14:03:00,
2013-12-22 07:08:00,36.6,34.5,30.15,West,273,0.0,0.0,92,0.00,,,0.00,Wunderground v.1.15,2013-12-22 14:08:00,
2013-12-22 07:14:00,36.6,34.5,30.15,West,273,0.0,0.0,92,0.00,,,0.00,Wunderground v.1.15,2013-12-22 14:14:00,
2013-12-22 07:19:00,36.5,34.4,30.15,West,273,0.0,0.0,92,0.00,,,0.00,Wunderground v.1.15,2013-12-22 14:19:00,
2013-12-22 07:24:00,36.4,34.3,30.15,West,273,0.0,0.0,92,0.00,,,0.00,Wunderground v.1.15,2013-12-22 14:24:00,
2013-12-22 07:29:00,36.3,34.2,30.16,West,273,0.0,0.0,92,0.00,,,0.00,Wunderground v.1.15,2013-12-22 14:29:00,
2013-12-22 07:34:00,36.2,34.1,30.16,West,273,0.0,0.0,92,0.00,,,0.00,Wunderground v.1.15,2013-12-22 14:34:00,
2013-12-22 07:40:00,36.1,34.3,30.16,West,273,0.0,0.0,93,0.00,,,0.00,Wunderground v.1.15,2013-12-22 14:40:00,
2013-12-22 07:46:00,36.3,34.5,30.16,West,273,0.0,0.0,93,0.00,,,0.00,Wunderground v.1.15,2013-12-22 14:46:00,
2013-12-22 07:52:00,36.7,34.9,30.16,West,273,0.0,1.0,93,0.00,,,0.00,Wunderground v.1.15,2013-12-22 14:52:00,
2013-12-22 07:58:00,37.1,35.3,30.16,West,273,0.0,2.0,93,0.00,,,0.00,Wunderground v.1.15,2013-12-22 14:58:00,
2013-12-22 08:04:00,37.5,35.7,30.17,West,273,1.0,4.0,93,0.00,,,0.00,Wunderground v.1.15,2013-12-22 15:04:00,
2013-12-22 08:09:00,38.0,36.2,30.17,West,273,1.0,4.0,93,0.00,,,0.00,Wunderground v.1.15,2013-12-22 15:09:00,
2013-12-22 08:15:00,38.6,36.8,30.17,West,273,1.0,2.0,93,0.00,,,0.00,Wunderground v.1.15,2013-12-22 15:15:00,
2013-12-22 08:20:00,39.0,36.9,30.17,West,273,1.0,1.0,92,0.00,,,0.00,Wunderground v.1.15,2013-12-22 15:20:00,
2013-12-22 08:26:00,39.2,37.1,30.18,West,266,2.0,5.0,92,0.00,,,0.00,Wunderground v.1.15,2013-12-22 15:26:00,
2013-12-22 08:31:00,39.7,37.3,30.18,West,262,2.0,5.0,91,0.00,,,0.00,Wunderground v.1.15,2013-12-22 15:31:00,
2013-12-22 08:36:00,40.2,37.8,30.18,West,262,2.0,5.0,91,0.00,,,0.00,Wunderground v.1.15,2013-12-22 15:36:00,
2013-12-22 08:42:00,40.6,37.9,30.18,West,261,1.0,1.0,90,0.00,,,0.00,Wunderground v.1.15,2013-12-22 15:42:00,
2013-12-22 08:48:00,41.3,38.3,30.19,West,261,0.0,1.0,89,0.00,,,0.00,Wunderground v.1.15,2013-12-22 15:48:00,
2013-12-22 08:53:00,42.2,38.9,30.19,West,261,0.0,1.0,88,0.00,,,0.00,Wunderground v.1.15,2013-12-22 15:53:00,
2013-12-22 08:58:00,42.6,39.0,30.19,WSW,257,0.0,4.0,87,0.00,,,0.00,Wunderground v.1.15,2013-12-22 15:58:00,
2013-12-22 09:03:00,43.2,39.3,30.19,WSW,257,0.0,1.0,86,0.00,,,0.00,Wunderground v.1.15,2013-12-22 16:03:00,
2013-12-22 09:08:00,43.2,39.0,30.19,WSW,256,1.0,2.0,85,0.00,,,0.00,Wunderground v.1.15,2013-12-22 16:08:00,
2013-12-22 09:14:00,43.9,39.7,30.20,South,178,1.0,3.0,85,0.00,,,0.00,Wunderground v.1.15,2013-12-22 16:14:00,
2013-12-22 09:19:00,44.2,39.4,30.20,South,173,1.0,3.0,83,0.00,,,0.00,Wunderground v.1.15,2013-12-22 16:19:00,
2013-12-22 09:24:00,44.6,39.8,30.20,South,173,1.0,2.0,83,0.00,,,0.00,Wunderground v.1.15,2013-12-22 16:24:00,
2013-12-22 09:29:00,45.1,39.6,30.20,South,173,1.0,2.0,81,0.00,,,0.00,Wunderground v.1.15,2013-12-22 16:29:00,
2013-12-22 09:34:00,45.5,40.0,30.21,South,173,2.0,3.0,81,0.00,,,0.00,Wunderground v.1.15,2013-12-22 16:34:00,
2013-12-22 09:39:00,45.9,40.1,30.21,South,173,2.0,4.0,80,0.00,,,0.00,Wunderground v.1.15,2013-12-22 16:39:00,
2013-12-22 09:45:00,46.4,40.2,30.21,SSE,168,3.0,3.0,79,0.00,,,0.00,Wunderground v.1.15,2013-12-22 16:45:00,
2013-12-22 09:50:00,46.7,40.2,30.22,SSE,163,2.0,2.0,78,0.00,,,0.00,Wunderground v.1.15,2013-12-22 16:50:00,
2013-12-22 09:55:00,47.5,41.3,30.22,SSE,163,1.0,3.0,79,0.00,,,0.00,Wunderground v.1.15,2013-12-22 16:55:00,
2013-12-22 10:01:00,47.8,40.9,30.22,ESE,123,2.0,3.0,77,0.00,,,0.00,Wunderground v.1.15,2013-12-22 17:01:00,
2013-12-22 10:06:00,47.7,40.8,30.22,ESE,122,2.0,4.0,77,0.00,,,0.00,Wunderground v.1.15,2013-12-22 17:06:00,
2013-12-22 10:12:00,48.4,40.8,30.22,SE,132,2.0,3.0,75,0.00,,,0.00,Wunderground v.1.15,2013-12-22 17:12:00,
2013-12-22 10:17:00,49.8,41.8,30.22,SE,131,2.0,3.0,74,0.00,,,0.00,Wunderground v.1.15,2013-12-22 17:17:00,
2013-12-22 10:22:00,49.2,40.9,30.22,SE,131,1.0,3.0,73,0.00,,,0.00,Wunderground v.1.15,2013-12-22 17:22:00,
2013-12-22 10:27:00,49.6,41.3,30.22,SE,131,1.0,3.0,73,0.00,,,0.00,Wunderground v.1.15,2013-12-22 17:27:00,
2013-12-22 10:33:00,50.4,42.1,30.22,SE,131,1.0,3.0,73,0.00,,,0.00,Wunderground v.1.15,2013-12-22 17:33:00,
2013-12-22 10:38:00,50.9,41.8,30.22,SE,131,1.0,3.0,71,0.00,,,0.00,Wunderground v.1.15,2013-12-22 17:38:00,
2013-12-22 10:43:00,51.1,42.0,30.22,SE,130,1.0,2.0,71,0.00,,,0.00,Wunderground v.1.15,2013-12-22 17:43:00,
2013-12-22 10:48:00,51.5,42.0,30.22,ESE,122,1.0,2.0,70,0.00,,,0.00,Wunderground v.1.15,2013-12-22 17:48:00,
2013-12-22 10:53:00,52.0,42.5,30.22,ESE,122,1.0,1.0,70,0.00,,,0.00,Wunderground v.1.15,2013-12-22 17:53:00,
2013-12-22 10:59:00,52.1,42.2,30.22,ESE,119,2.0,3.0,69,0.00,,,0.00,Wunderground v.1.15,2013-12-22 17:59:00,
2013-12-22 11:05:00,53.0,42.3,30.21,ESE,119,1.0,3.0,67,0.00,,,0.00,Wunderground v.1.15,2013-12-22 18:05:00,
2013-12-22 11:10:00,53.1,41.6,30.21,ESE,121,2.0,2.0,65,0.00,,,0.00,Wunderground v.1.15,2013-12-22 18:10:00,
2013-12-22 11:15:00,53.2,42.5,30.21,ESE,121,1.0,3.0,67,0.00,,,0.00,Wunderground v.1.15,2013-12-22 18:15:00,
2013-12-22 11:20:00,53.0,41.5,30.22,ESE,121,2.0,2.0,65,0.00,,,0.00,Wunderground v.1.15,2013-12-22 18:20:00,
2013-12-22 11:25:00,53.2,42.1,30.22,ESE,121,2.0,4.0,66,0.00,,,0.00,Wunderground v.1.15,2013-12-22 18:25:00,
2013-12-22 11:30:00,53.6,41.3,30.22,ESE,121,1.0,1.0,63,0.00,,,0.00,Wunderground v.1.15,2013-12-22 18:30:00,
2013-12-22 11:35:00,53.7,41.8,30.21,ESE,121,1.0,2.0,64,0.00,,,0.00,Wunderground v.1.15,2013-12-22 18:35:00,
2013-12-22 11:41:00,54.2,41.9,30.21,ESE,121,1.0,1.0,63,0.00,,,0.00,Wunderground v.1.15,2013-12-22 18:41:00,
2013-12-22 11:46:00,54.2,41.0,30.21,ESE,123,1.0,3.0,61,0.00,,,0.00,Wunderground v.1.15,2013-12-22 18:46:00,
2013-12-22 11:52:00,54.2,40.6,30.20,SE,127,2.0,2.0,60,0.00,,,0.00,Wunderground v.1.15,2013-12-22 18:52:00,
2013-12-22 11:57:00,55.2,40.7,30.20,ESE,123,1.0,3.0,58,0.00,,,0.00,Wunderground v.1.15,2013-12-22 18:57:00,
2013-12-22 12:02:00,55.1,41.0,30.20,ESE,123,1.0,3.0,59,0.00,,,0.00,Wunderground v.1.15,2013-12-22 19:02:00,
2013-12-22 12:07:00,56.0,40.5,30.20,SSW,204,1.0,3.0,56,0.00,,,0.00,Wunderground v.1.15,2013-12-22 19:07:00,
2013-12-22 12:13:00,56.5,41.0,30.20,SSW,204,1.0,2.0,56,0.00,,,0.00,Wunderground v.1.15,2013-12-22 19:13:00,
2013-12-22 12:19:00,56.0,40.1,30.19,South,179,1.0,3.0,55,0.00,,,0.00,Wunderground v.1.15,2013-12-22 19:19:00,
2013-12-22 12:24:00,55.3,38.4,30.19,South,173,1.0,3.0,53,0.00,,,0.00,Wunderground v.1.15,2013-12-22 19:24:00,
2013-12-22 12:29:00,55.3,38.4,30.19,South,173,1.0,3.0,53,0.00,,,0.00,Wunderground v.1.15,2013-12-22 19:29:00,
2013-12-22 12:34:00,55.5,38.1,30.19,South,173,1.0,3.0,52,0.00,,,0.00,Wunderground v.1.15,2013-12-22 19:34:00,
2013-12-22 12:39:00,55.9,37.5,30.19,NE,54,1.0,3.0,50,0.00,,,0.00,Wunderground v.1.15,2013-12-22 19:39:00,
2013-12-22 12:45:00,56.1,38.2,30.19,NE,54,1.0,3.0,51,0.00,,,0.00,Wunderground v.1.15,2013-12-22 19:45:00,
2013-12-22 12:50:00,57.0,38.5,30.19,NE,37,1.0,1.0,50,0.00,,,0.00,Wunderground v.1.15,2013-12-22 19:50:00,
2013-12-22 12:55:00,56.9,37.4,30.19,NE,37,1.0,2.0,48,0.00,,,0.00,Wunderground v.1.15,2013-12-22 19:55:00,
2013-12-22 13:00:00,56.6,37.1,30.18,ENE,75,1.0,1.0,48,0.00,,,0.00,Wunderground v.1.15,2013-12-22 20:00:00,
2013-12-22 13:06:00,56.3,36.8,30.18,ENE,75,1.0,2.0,48,0.00,,,0.00,Wunderground v.1.15,2013-12-22 20:06:00,
2013-12-22 13:12:00,57.2,38.2,30.18,ENE,75,0.0,1.0,49,0.00,,,0.00,Wunderground v.1.15,2013-12-22 20:12:00,
2013-12-22 13:18:00,58.2,37.5,30.18,SSE,148,1.0,2.0,46,0.00,,,0.00,Wunderground v.1.15,2013-12-22 20:18:00,
2013-12-22 13:23:00,57.6,37.5,30.18,SSE,151,1.0,3.0,47,0.00,,,0.00,Wunderground v.1.15,2013-12-22 20:23:00,
2013-12-22 13:29:00,57.4,36.8,30.18,SW,221,1.0,3.0,46,0.00,,,0.00,Wunderground v.1.15,2013-12-22 20:29:00,
2013-12-22 13:34:00,57.3,36.1,30.18,SW,221,1.0,2.0,45,0.00,,,0.00,Wunderground v.1.15,2013-12-22 20:34:00,
2013-12-22 13:40:00,57.2,35.5,30.17,SW,226,1.0,4.0,44,0.00,,,0.00,Wunderground v.1.15,2013-12-22 20:40:00,
2013-12-22 13:46:00,57.8,36.6,30.17,SW,231,1.0,4.0,45,0.00,,,0.00,Wunderground v.1.15,2013-12-22 20:46:00,
2013-12-22 13:52:00,58.2,36.9,30.17,WSW,255,1.0,6.0,45,0.00,,,0.00,Wunderground v.1.15,2013-12-22 20:52:00,
2013-12-22 13:57:00,59.2,37.9,30.17,West,260,1.0,6.0,45,0.00,,,0.00,Wunderground v.1.15,2013-12-22 20:57:00,
2013-12-22 14:03:00,58.2,36.4,30.17,West,260,1.0,2.0,44,0.00,,,0.00,Wunderground v.1.15,2013-12-22 21:03:00,
2013-12-22 14:08:00,57.7,35.3,30.17,SE,144,1.0,4.0,43,0.00,,,0.00,Wunderground v.1.15,2013-12-22 21:08:00,
2013-12-22 14:13:00,57.5,36.3,30.17,ENE,67,2.0,3.0,45,0.00,,,0.00,Wunderground v.1.15,2013-12-22 21:13:00,
2013-12-22 14:18:00,57.6,35.8,30.17,NE,55,2.0,3.0,44,0.00,,,0.00,Wunderground v.1.15,2013-12-22 21:18:00,
2013-12-22 14:23:00,57.7,35.9,30.17,ENE,62,2.0,3.0,44,0.00,,,0.00,Wunderground v.1.15,2013-12-22 21:23:00,
2013-12-22 14:29:00,58.0,35.6,30.17,ENE,60,1.0,3.0,43,0.00,,,0.00,Wunderground v.1.15,2013-12-22 21:29:00,
2013-12-22 14:31:00,58.0,36.2,30.17,NNW,348,1.0,3.0,44,0.00,,,0.00,Wunderground v.1.15,2013-12-22 21:31:00,
2013-12-22 14:36:00,58.4,35.4,30.17,NNW,334,0.0,3.0,42,0.00,,,0.00,Wunderground v.1.15,2013-12-22 21:36:00,
2013-12-22 14:42:00,58.3,35.3,30.17,NNW,335,0.0,1.0,42,0.00,,,0.00,Wunderground v.1.15,2013-12-22 21:42:00,
2013-12-22 14:48:00,58.7,36.2,30.17,NNW,335,0.0,1.0,43,0.00,,,0.00,Wunderground v.1.15,2013-12-22 21:48:00,
2013-12-22 14:53:00,57.9,34.9,30.17,NNW,335,0.0,0.0,42,0.00,,,0.00,Wunderground v.1.15,2013-12-22 21:53:00,
2013-12-22 14:58:00,57.6,34.7,30.17,NNW,335,0.0,0.0,42,0.00,,,0.00,Wunderground v.1.15,2013-12-22 21:58:00,
2013-12-22 15:03:00,58.1,35.1,30.17,NNW,343,1.0,4.0,42,0.00,,,0.00,Wunderground v.1.15,2013-12-22 22:03:00,
2013-12-22 15:08:00,58.7,35.7,30.17,NNW,343,1.0,4.0,42,0.00,,,0.00,Wunderground v.1.15,2013-12-22 22:08:00,
2013-12-22 15:13:00,58.5,34.9,30.17,NNW,346,1.0,6.0,41,0.00,,,0.00,Wunderground v.1.15,2013-12-22 22:13:00,
2013-12-22 15:18:00,58.4,35.4,30.17,NE,42,2.0,6.0,42,0.00,,,0.00,Wunderground v.1.15,2013-12-22 22:18:00,
2013-12-22 15:23:00,57.8,34.2,30.17,NE,54,3.0,4.0,41,0.00,,,0.00,Wunderground v.1.15,2013-12-22 22:23:00,
2013-12-22 15:28:00,57.9,34.3,30.17,NE,54,2.0,4.0,41,0.00,,,0.00,Wunderground v.1.15,2013-12-22 22:28:00,
2013-12-22 15:34:00,57.8,34.8,30.17,NE,53,1.0,2.0,42,0.00,,,0.00,Wunderground v.1.15,2013-12-22 22:34:00,
2013-12-22 15:39:00,58.0,35.0,30.17,NE,45,1.0,2.0,42,0.00,,,0.00,Wunderground v.1.15,2013-12-22 22:39:00,
2013-12-22 15:44:00,57.6,34.1,30.17,NE,45,1.0,1.0,41,0.00,,,0.00,Wunderground v.1.15,2013-12-22 22:44:00,
2013-12-22 15:49:00,57.4,33.9,30.17,NE,45,0.0,2.0,41,0.00,,,0.00,Wunderground v.1.15,2013-12-22 22:49:00,
2013-12-22 15:54:00,57.2,34.3,30.17,NE,45,0.0,2.0,42,0.00,,,0.00,Wunderground v.1.15,2013-12-22 22:54:00,
2013-12-22 15:59:00,57.4,33.3,30.17,NNE,21,1.0,4.0,40,0.00,,,0.00,Wunderground v.1.15,2013-12-22 22:59:00,
2013-12-22 16:05:00,57.0,32.9,30.17,NNE,22,1.0,3.0,40,0.00,,,0.00,Wunderground v.1.15,2013-12-22 23:05:00,
2013-12-22 16:10:00,56.8,33.3,30.17,NNE,22,1.0,1.0,41,0.00,,,0.00,Wunderground v.1.15,2013-12-22 23:10:00,
2013-12-22 16:15:00,56.8,33.3,30.17,NNE,22,0.0,1.0,41,0.00,,,0.00,Wunderground v.1.15,2013-12-22 23:15:00,
2013-12-22 16:20:00,56.8,32.7,30.17,NNE,22,0.0,1.0,40,0.00,,,0.00,Wunderground v.1.15,2013-12-22 23:20:00,
2013-12-22 16:26:00,56.7,32.6,30.17,NNE,22,1.0,1.0,40,0.00,,,0.00,Wunderground v.1.15,2013-12-22 23:26:00,
2013-12-22 16:32:00,56.5,33.1,30.18,NNE,22,1.0,1.0,41,0.00,,,0.00,Wunderground v.1.15,2013-12-22 23:32:00,
2013-12-22 16:38:00,56.3,32.9,30.18,NNE,22,0.0,2.0,41,0.00,,,0.00,Wunderground v.1.15,2013-12-22 23:38:00,
2013-12-22 16:43:00,56.3,32.9,30.18,NNE,22,0.0,0.0,41,0.00,,,0.00,Wunderground v.1.15,2013-12-22 23:43:00,
2013-12-22 16:48:00,56.2,33.4,30.18,NNE,22,0.0,0.0,42,0.00,,,0.00,Wunderground v.1.15,2013-12-22 23:48:00,
2013-12-22 16:54:00,56.1,33.9,30.18,NNE,22,0.0,2.0,43,0.00,,,0.00,Wunderground v.1.15,2013-12-22 23:54:00,
2013-12-22 16:59:00,56.0,36.0,30.18,NNE,21,0.0,2.0,47,0.00,,,0.00,Wunderground v.1.15,2013-12-22 23:59:00,
2013-12-22 17:04:00,55.8,35.9,30.18,NNE,21,0.0,0.0,47,0.00,,,0.00,Wunderground v.1.15,2013-12-23 00:04:00,
2013-12-22 17:09:00,55.6,36.2,30.18,NNE,19,0.0,3.0,48,0.00,,,0.00,Wunderground v.1.15,2013-12-23 00:09:00,
2013-12-22 17:14:00,55.3,35.9,30.18,NNE,19,0.0,0.0,48,0.00,,,0.00,Wunderground v.1.15,2013-12-23 00:14:00,
2013-12-22 17:19:00,55.0,36.2,30.19,NNE,18,0.0,1.0,49,0.00,,,0.00,Wunderground v.1.15,2013-12-23 00:19:00,
2013-12-22 17:24:00,54.7,36.4,30.19,NNE,18,0.0,2.0,50,0.00,,,0.00,Wunderground v.1.15,2013-12-23 00:24:00,
2013-12-22 17:30:00,54.4,36.6,30.19,NNE,18,0.0,1.0,51,0.00,,,0.00,Wunderground v.1.15,2013-12-23 00:30:00,
2013-12-22 17:35:00,54.0,36.8,30.19,NNE,17,0.0,1.0,52,0.00,,,0.00,Wunderground v.1.15,2013-12-23 00:35:00,
2013-12-22 17:40:00,53.7,37.0,30.19,NNE,17,0.0,0.0,53,0.00,,,0.00,Wunderground v.1.15,2013-12-23 00:40:00,
2013-12-22 17:45:00,53.3,36.6,30.19,NNE,17,0.0,1.0,53,0.00,,,0.00,Wunderground v.1.15,2013-12-23 00:45:00,
2013-12-22 17:50:00,52.9,36.7,30.19,NNE,17,0.0,0.0,54,0.00,,,0.00,Wunderground v.1.15,2013-12-23 00:50:00,
2013-12-22 17:56:00,52.5,36.8,30.19,NNE,17,0.0,1.0,55,0.00,,,0.00,Wunderground v.1.15,2013-12-23 00:56:00,
2013-12-22 18:01:00,52.2,36.5,30.19,NNE,17,0.0,1.0,55,0.00,,,0.00,Wunderground v.1.15,2013-12-23 01:01:00,
2013-12-22 18:07:00,51.9,36.2,30.19,NNE,17,0.0,1.0,55,0.00,,,0.00,Wunderground v.1.15,2013-12-23 01:07:00,
2013-12-22 18:12:00,51.5,35.9,30.19,NNE,17,0.0,1.0,55,0.00,,,0.00,Wunderground v.1.15,2013-12-23 01:12:00,
2013-12-22 18:17:00,51.2,35.6,30.19,NNE,17,0.0,1.0,55,0.00,,,0.00,Wunderground v.1.15,2013-12-23 01:17:00,
2013-12-22 18:22:00,50.9,35.3,30.19,NNE,17,0.0,0.0,55,0.00,,,0.00,Wunderground v.1.15,2013-12-23 01:22:00,
2013-12-22 18:27:00,50.7,35.6,30.19,NNE,17,0.0,0.0,56,0.00,,,0.00,Wunderground v.1.15,2013-12-23 01:27:00,
2013-12-22 18:32:00,50.5,35.4,30.19,NNE,17,0.0,0.0,56,0.00,,,0.00,Wunderground v.1.15,2013-12-23 01:32:00,
2013-12-22 18:38:00,50.2,35.5,30.19,NNE,17,0.0,0.0,57,0.00,,,0.00,Wunderground v.1.15,2013-12-23 01:38:00,
2013-12-22 18:43:00,49.9,35.7,30.20,NNE,17,0.0,0.0,58,0.00,,,0.00,Wunderground v.1.15,2013-12-23 01:43:00,
2013-12-22 18:48:00,49.6,35.4,30.20,NNE,17,0.0,0.0,58,0.00,,,0.00,Wunderground v.1.15,2013-12-23 01:48:00,
2013-12-22 18:53:00,49.4,35.7,30.20,NNE,17,0.0,0.0,59,0.00,,,0.00,Wunderground v.1.15,2013-12-23 01:53:00,
2013-12-22 18:58:00,49.0,35.3,30.20,NNE,17,0.0,0.0,59,0.00,,,0.00,Wunderground v.1.15,2013-12-23 01:58:00,
2013-12-22 19:03:00,48.7,35.4,30.20,NNE,17,0.0,0.0,60,0.00,,,0.00,Wunderground v.1.15,2013-12-23 02:03:00,
2013-12-22 19:08:00,48.4,34.7,30.21,NNE,17,0.0,0.0,59,0.00,,,0.00,Wunderground v.1.15,2013-12-23 02:08:00,
2013-12-22 19:14:00,48.3,35.0,30.21,NNE,17,1.0,1.0,60,0.00,,,0.00,Wunderground v.1.15,2013-12-23 02:14:00,
2013-12-22 19:20:00,48.3,35.0,30.21,NNE,17,0.0,0.0,60,0.00,,,0.00,Wunderground v.1.15,2013-12-23 02:20:00,
2013-12-22 19:25:00,48.3,35.5,30.21,NNE,17,0.0,1.0,61,0.00,,,0.00,Wunderground v.1.15,2013-12-23 02:25:00,
2013-12-22 19:31:00,48.3,35.9,30.21,NNE,16,0.0,1.0,62,0.00,,,0.00,Wunderground v.1.15,2013-12-23 02:31:00,
2013-12-22 19:36:00,48.3,35.9,30.22,NNE,16,1.0,2.0,62,0.00,,,0.00,Wunderground v.1.15,2013-12-23 02:36:00,
2013-12-22 19:41:00,48.3,35.9,30.22,NNE,15,1.0,1.0,62,0.00,,,0.00,Wunderground v.1.15,2013-12-23 02:41:00,
2013-12-22 19:47:00,48.4,36.4,30.22,NNE,15,1.0,2.0,63,0.00,,,0.00,Wunderground v.1.15,2013-12-23 02:47:00,
2013-12-22 19:53:00,48.3,36.7,30.22,North,11,1.0,1.0,64,0.00,,,0.00,Wunderground v.1.15,2013-12-23 02:53:00,
2013-12-22 19:59:00,48.3,37.1,30.22,North,6,1.0,3.0,65,0.00,,,0.00,Wunderground v.1.15,2013-12-23 02:59:00,
2013-12-22 20:04:00,48.2,37.4,30.23,NNW,333,2.0,3.0,66,0.00,,,0.00,Wunderground v.1.15,2013-12-23 03:04:00,
2013-12-22 20:09:00,48.3,37.5,30.22,NNW,331,2.0,5.0,66,0.00,,,0.00,Wunderground v.1.15,2013-12-23 03:09:00,
2013-12-22 20:14:00,48.2,37.8,30.23,NW,323,2.0,2.0,67,0.00,,,0.00,Wunderground v.1.15,2013-12-23 03:14:00,
2013-12-22 20:19:00,48.1,38.0,30.22,NW,321,2.0,4.0,68,0.00,,,0.00,Wunderground v.1.15,2013-12-23 03:19:00,
2013-12-22 20:25:00,48.0,37.9,30.23,NW,318,1.0,4.0,68,0.00,,,0.00,Wunderground v.1.15,2013-12-23 03:25:00,
2013-12-22 20:31:00,47.9,38.2,30.23,NW,314,1.0,4.0,69,0.00,,,0.00,Wunderground v.1.15,2013-12-23 03:31:00,
2013-12-22 20:36:00,47.8,38.1,30.23,NW,314,1.0,4.0,69,0.00,,,0.00,Wunderground v.1.15,2013-12-23 03:36:00,
2013-12-22 20:41:00,47.8,38.1,30.23,NW,314,0.0,1.0,69,0.00,,,0.00,Wunderground v.1.15,2013-12-23 03:41:00,
2013-12-22 20:47:00,47.6,37.9,30.24,NW,314,0.0,1.0,69,0.00,,,0.00,Wunderground v.1.15,2013-12-23 03:47:00,
2013-12-22 20:52:00,47.5,38.2,30.23,NW,314,0.0,0.0,70,0.00,,,0.00,Wunderground v.1.15,2013-12-23 03:52:00,
2013-12-22 20:58:00,47.2,38.3,30.23,NW,314,0.0,1.0,71,0.00,,,0.00,Wunderground v.1.15,2013-12-23 03:58:00,
2013-12-22 21:03:00,47.0,38.1,30.24,NW,314,0.0,1.0,71,0.00,,,0.00,Wunderground v.1.15,2013-12-23 04:03:00,
2013-12-22 21:08:00,46.8,38.2,30.23,NW,314,0.0,1.0,72,0.00,,,0.00,Wunderground v.1.15,2013-12-23 04:08:00,
2013-12-22 21:13:00,46.8,38.6,30.24,NW,314,1.0,2.0,73,0.00,,,0.00,Wunderground v.1.15,2013-12-23 04:13:00,
2013-12-22 21:18:00,46.7,38.5,30.24,NW,313,1.0,2.0,73,0.00,,,0.00,Wunderground v.1.15,2013-12-23 04:18:00,
2013-12-22 21:23:00,46.7,38.5,30.24,NW,313,1.0,2.0,73,0.00,,,0.00,Wunderground v.1.15,2013-12-23 04:23:00,
2013-12-22 21:29:00,46.7,38.5,30.24,NW,313,1.0,2.0,73,0.00,,,0.00,Wunderground v.1.15,2013-12-23 04:29:00,
2013-12-22 21:34:00,46.7,38.5,30.24,NW,313,1.0,1.0,73,0.00,,,0.00,Wunderground v.1.15,2013-12-23 04:34:00,
2013-12-22 21:39:00,46.6,38.4,30.24,NW,313,0.0,1.0,73,0.00,,,0.00,Wunderground v.1.15,2013-12-23 04:39:00,
2013-12-22 21:44:00,46.6,38.8,30.24,NW,313,0.0,1.0,74,0.00,,,0.00,Wunderground v.1.15,2013-12-23 04:44:00,
2013-12-22 21:49:00,46.4,38.6,30.24,NW,313,0.0,2.0,74,0.00,,,0.00,Wunderground v.1.15,2013-12-23 04:49:00,
2013-12-22 21:54:00,46.4,38.6,30.24,NW,313,1.0,4.0,74,0.00,,,0.00,Wunderground v.1.15,2013-12-23 04:54:00,
2013-12-22 22:00:00,46.3,38.8,30.25,NW,313,1.0,1.0,75,0.00,,,0.00,Wunderground v.1.15,2013-12-23 05:00:00,
2013-12-22 22:01:00,46.3,38.8,30.25,NW,313,1.0,1.0,75,0.00,,,0.00,Wunderground v.1.15,2013-12-23 05:01:00,
2013-12-22 22:03:00,46.3,38.8,30.25,NW,313,1.0,1.0,75,0.00,,,0.00,Wunderground v.1.15,2013-12-23 05:03:00,
2013-12-22 22:04:00,46.3,38.8,30.25,NW,313,1.0,1.0,75,0.00,,,0.00,Wunderground v.1.15,2013-12-23 05:04:00,
2013-12-22 22:05:00,46.2,38.7,30.25,NW,313,0.0,1.0,75,0.00,,,0.00,Wunderground v.1.15,2013-12-23 05:05:00,
2013-12-22 22:11:00,46.1,38.6,30.25,NW,313,0.0,0.0,75,0.00,,,0.00,Wunderground v.1.15,2013-12-23 05:11:00,
2013-12-22 22:12:00,46.1,38.6,30.25,NW,313,0.0,0.0,75,0.00,,,0.00,Wunderground v.1.15,2013-12-23 05:12:00,
2013-12-22 22:14:00,46.1,39.0,30.25,NW,313,0.0,0.0,76,0.00,,,0.00,Wunderground v.1.15,2013-12-23 05:14:00,
2013-12-22 22:20:00,45.9,38.8,30.25,NW,313,0.0,0.0,76,0.00,,,0.00,Wunderground v.1.15,2013-12-23 05:20:00,
2013-12-22 22:26:00,45.7,38.6,30.25,NW,313,0.0,0.0,76,0.00,,,0.00,Wunderground v.1.15,2013-12-23 05:26:00,
2013-12-22 22:32:00,45.5,38.7,30.25,NW,313,0.0,0.0,77,0.00,,,0.00,Wunderground v.1.15,2013-12-23 05:32:00,
2013-12-22 22:37:00,45.3,38.5,30.25,NW,313,0.0,0.0,77,0.00,,,0.00,Wunderground v.1.15,2013-12-23 05:37:00,
2013-12-22 22:42:00,45.1,38.3,30.25,NW,313,0.0,0.0,77,0.00,,,0.00,Wunderground v.1.15,2013-12-23 05:42:00,
2013-12-22 22:47:00,45.0,38.2,30.26,NW,313,0.0,0.0,77,0.00,,,0.00,Wunderground v.1.15,2013-12-23 05:47:00,
2013-12-22 22:52:00,44.8,38.4,30.26,NW,313,0.0,0.0,78,0.00,,,0.00,Wunderground v.1.15,2013-12-23 05:52:00,
2013-12-22 22:58:00,44.5,38.1,30.26,NW,313,0.0,1.0,78,0.00,,,0.00,Wunderground v.1.15,2013-12-23 05:58:00,
2013-12-22 23:03:00,44.4,38.3,30.26,NW,313,0.0,0.0,79,0.00,,,0.00,Wunderground v.1.15,2013-12-23 06:03:00,
2013-12-22 23:09:00,44.2,38.1,30.26,NW,313,0.0,0.0,79,0.00,,,0.00,Wunderground v.1.15,2013-12-23 06:09:00,
2013-12-22 23:14:00,44.0,38.2,30.26,NW,312,0.0,0.0,80,0.00,,,0.00,Wunderground v.1.15,2013-12-23 06:14:00,
2013-12-22 23:19:00,43.8,38.0,30.26,NW,313,0.0,0.0,80,0.00,,,0.00,Wunderground v.1.15,2013-12-23 06:19:00,
2013-12-22 23:24:00,43.7,38.3,30.26,NW,313,0.0,0.0,81,0.00,,,0.00,Wunderground v.1.15,2013-12-23 06:24:00,
2013-12-22 23:30:00,43.5,38.1,30.26,NW,312,0.0,0.0,81,0.00,,,0.00,Wunderground v.1.15,2013-12-23 06:30:00,
2013-12-22 23:35:00,43.4,38.3,30.26,NW,313,0.0,1.0,82,0.00,,,0.00,Wunderground v.1.15,2013-12-23 06:35:00,
2013-12-22 23:40:00,43.2,38.1,30.26,NW,313,0.0,0.0,82,0.00,,,0.00,Wunderground v.1.15,2013-12-23 06:40:00,
2013-12-22 23:45:00,43.1,38.0,30.26,NW,313,0.0,0.0,82,0.00,,,0.00,Wunderground v.1.15,2013-12-23 06:45:00,
2013-12-22 23:50:00,43.0,37.9,30.26,NW,313,0.0,0.0,82,0.00,,,0.00,Wunderground v.1.15,2013-12-23 06:50:00,
2013-12-22 23:56:00,42.7,37.9,30.26,NW,313,0.0,0.0,83,0.00,,,0.00,Wunderground v.1.15,2013-12-23 06:56:00,